sensor_id;sensor_type;location;lat;lon;timestamp;temperature;humidity
11609;DHT22;5860;52.018;8.536;2023-02-22T00:00:45;8.60;99.90
11609;DHT22;5860;52.018;8.536;2023-02-22T00:03:24;8.50;99.90
11609;DHT22;5860;52.018;8.536;2023-02-22T00:05:57;8.50;99.90
11609;DHT22;5860;52.018;8.536;2023-02-22T00:08:32;8.60;99.90
11609;DHT22;5860;52.018;8.536;2023-02-22T00:11:05;8.60;99.90
11609;DHT22;5860;52.018;8.536;2023-02-22T00:13:36;8.60;99.90
11609;DHT22;5860;52.018;8.536;2023-02-22T00:16:03;8.60;99.90
11609;DHT22;5860;52.018;8.536;2023-02-22T00:18:31;8.60;99.90
11609;DHT22;5860;52.018;8.536;2023-02-22T00:21:00;8.60;99.90
11609;DHT22;5860;52.018;8.536;2023-02-22T00:23:29;8.60;99.90
11609;DHT22;5860;52.018;8.536;2023-02-22T00:25:58;8.60;99.90
11609;DHT22;5860;52.018;8.536;2023-02-22T00:28:25;8.60;99.90
11609;DHT22;5860;52.018;8.536;2023-02-22T00:30:52;8.60;99.90
11609;DHT22;5860;52.018;8.536;2023-02-22T00:33:20;8.60;99.90
11609;DHT22;5860;52.018;8.536;2023-02-22T00:35:47;8.60;99.90
11609;DHT22;5860;52.018;8.536;2023-02-22T00:38:16;8.50;99.90
11609;DHT22;5860;52.018;8.536;2023-02-22T00:40:44;8.60;99.90
11609;DHT22;5860;52.018;8.536;2023-02-22T00:43:11;8.60;99.90
11609;DHT22;5860;52.018;8.536;2023-02-22T00:45:38;8.50;99.90
11609;DHT22;5860;52.018;8.536;2023-02-22T00:48:05;8.50;99.90
11609;DHT22;5860;52.018;8.536;2023-02-22T00:50:33;8.50;99.90
11609;DHT22;5860;52.018;8.536;2023-02-22T00:53:02;8.50;99.90
11609;DHT22;5860;52.018;8.536;2023-02-22T00:55:34;8.50;99.90
11609;DHT22;5860;52.018;8.536;2023-02-22T00:58:02;8.50;99.90
11609;DHT22;5860;52.018;8.536;2023-02-22T01:00:35;8.40;99.90
11609;DHT22;5860;52.018;8.536;2023-02-22T01:03:04;8.40;99.90
11609;DHT22;5860;52.018;8.536;2023-02-22T01:05:31;8.30;99.90
11609;DHT22;5860;52.018;8.536;2023-02-22T01:08:00;8.30;99.90
11609;DHT22;5860;52.018;8.536;2023-02-22T01:10:29;8.20;99.90
11609;DHT22;5860;52.018;8.536;2023-02-22T01:12:58;8.10;99.90
11609;DHT22;5860;52.018;8.536;2023-02-22T01:15:28;8.00;99.90
11609;DHT22;5860;52.018;8.536;2023-02-22T01:17:57;8.00;99.90
11609;DHT22;5860;52.018;8.536;2023-02-22T01:20:26;7.90;99.90
11609;DHT22;5860;52.018;8.536;2023-02-22T01:22:56;7.80;99.90
11609;DHT22;5860;52.018;8.536;2023-02-22T01:25:25;7.80;99.90
11609;DHT22;5860;52.018;8.536;2023-02-22T01:27:53;7.70;99.90
11609;DHT22;5860;52.018;8.536;2023-02-22T01:30:24;7.70;99.90
11609;DHT22;5860;52.018;8.536;2023-02-22T01:32:52;7.70;99.90
11609;DHT22;5860;52.018;8.536;2023-02-22T01:35:22;7.70;99.90
11609;DHT22;5860;52.018;8.536;2023-02-22T01:37:49;7.70;99.90
11609;DHT22;5860;52.018;8.536;2023-02-22T01:40:23;7.70;99.90
11609;DHT22;5860;52.018;8.536;2023-02-22T01:42:52;7.60;99.90
11609;DHT22;5860;52.018;8.536;2023-02-22T01:48:05;7.50;99.90
11609;DHT22;5860;52.018;8.536;2023-02-22T01:50:42;7.50;99.90
11609;DHT22;5860;52.018;8.536;2023-02-22T01:53:12;7.40;99.90
11609;DHT22;5860;52.018;8.536;2023-02-22T01:55:41;7.30;99.90
11609;DHT22;5860;52.018;8.536;2023-02-22T01:58:09;7.20;99.90
11609;DHT22;5860;52.018;8.536;2023-02-22T02:00:36;7.10;99.90
11609;DHT22;5860;52.018;8.536;2023-02-22T02:03:22;7.20;99.90
11609;DHT22;5860;52.018;8.536;2023-02-22T02:05:56;7.20;99.90
11609;DHT22;5860;52.018;8.536;2023-02-22T02:08:33;7.00;99.90
11609;DHT22;5860;52.018;8.536;2023-02-22T02:11:07;7.00;99.90
11609;DHT22;5860;52.018;8.536;2023-02-22T02:13:39;6.90;99.90
11609;DHT22;5860;52.018;8.536;2023-02-22T02:16:07;6.90;99.90
11609;DHT22;5860;52.018;8.536;2023-02-22T02:18:34;6.90;99.90
11609;DHT22;5860;52.018;8.536;2023-02-22T02:27:04;6.90;99.90
11609;DHT22;5860;52.018;8.536;2023-02-22T02:40:46;6.60;99.90
11609;DHT22;5860;52.018;8.536;2023-02-22T02:46:21;6.60;99.90
11609;DHT22;5860;52.018;8.536;2023-02-22T02:48:56;6.60;99.90
11609;DHT22;5860;52.018;8.536;2023-02-22T02:51:28;6.50;99.90
11609;DHT22;5860;52.018;8.536;2023-02-22T02:53:56;6.50;99.90
11609;DHT22;5860;52.018;8.536;2023-02-22T02:56:24;6.50;99.90
11609;DHT22;5860;52.018;8.536;2023-02-22T02:58:52;6.40;99.90
11609;DHT22;5860;52.018;8.536;2023-02-22T03:07:15;6.50;99.90
11609;DHT22;5860;52.018;8.536;2023-02-22T03:13:14;6.40;99.90
11609;DHT22;5860;52.018;8.536;2023-02-22T03:18:58;6.30;99.90
11609;DHT22;5860;52.018;8.536;2023-02-22T03:21:56;6.30;99.90
11609;DHT22;5860;52.018;8.536;2023-02-22T03:27:36;6.20;99.90
11609;DHT22;5860;52.018;8.536;2023-02-22T03:30:21;6.20;99.90
11609;DHT22;5860;52.018;8.536;2023-02-22T03:32:53;6.20;99.90
11609;DHT22;5860;52.018;8.536;2023-02-22T03:35:25;6.10;99.90
11609;DHT22;5860;52.018;8.536;2023-02-22T03:37:55;6.20;99.90
11609;DHT22;5860;52.018;8.536;2023-02-22T03:40:31;6.10;99.90
11609;DHT22;5860;52.018;8.536;2023-02-22T03:43:15;6.10;99.90
11609;DHT22;5860;52.018;8.536;2023-02-22T03:45:46;6.10;99.90
11609;DHT22;5860;52.018;8.536;2023-02-22T03:50:57;6.00;99.90
11609;DHT22;5860;52.018;8.536;2023-02-22T03:53:26;6.00;99.90
11609;DHT22;5860;52.018;8.536;2023-02-22T03:55:56;6.00;99.90
11609;DHT22;5860;52.018;8.536;2023-02-22T03:58:27;6.10;99.90
11609;DHT22;5860;52.018;8.536;2023-02-22T04:00:56;6.00;99.90
11609;DHT22;5860;52.018;8.536;2023-02-22T04:03:23;6.10;99.90
11609;DHT22;5860;52.018;8.536;2023-02-22T04:05:50;6.10;99.90
11609;DHT22;5860;52.018;8.536;2023-02-22T04:08:17;6.10;99.90
11609;DHT22;5860;52.018;8.536;2023-02-22T04:10:44;6.00;99.90
11609;DHT22;5860;52.018;8.536;2023-02-22T04:13:11;6.00;99.90
11609;DHT22;5860;52.018;8.536;2023-02-22T04:15:40;6.00;99.90
11609;DHT22;5860;52.018;8.536;2023-02-22T04:18:06;5.90;99.90
11609;DHT22;5860;52.018;8.536;2023-02-22T04:20:33;5.90;99.90
11609;DHT22;5860;52.018;8.536;2023-02-22T04:23:00;5.90;99.90
11609;DHT22;5860;52.018;8.536;2023-02-22T04:25:27;5.90;99.90
11609;DHT22;5860;52.018;8.536;2023-02-22T04:27:54;5.90;99.90
11609;DHT22;5860;52.018;8.536;2023-02-22T04:30:23;5.90;99.90
11609;DHT22;5860;52.018;8.536;2023-02-22T04:32:52;5.80;99.90
11609;DHT22;5860;52.018;8.536;2023-02-22T04:35:19;5.80;99.90
11609;DHT22;5860;52.018;8.536;2023-02-22T04:37:46;5.80;99.90
11609;DHT22;5860;52.018;8.536;2023-02-22T04:40:15;5.80;99.90
11609;DHT22;5860;52.018;8.536;2023-02-22T04:42:43;5.70;99.90
11609;DHT22;5860;52.018;8.536;2023-02-22T04:45:13;5.70;99.90
11609;DHT22;5860;52.018;8.536;2023-02-22T04:47:40;5.70;99.90
11609;DHT22;5860;52.018;8.536;2023-02-22T04:50:08;5.70;99.90
11609;DHT22;5860;52.018;8.536;2023-02-22T04:52:35;5.70;99.90
11609;DHT22;5860;52.018;8.536;2023-02-22T04:55:02;5.70;99.90
11609;DHT22;5860;52.018;8.536;2023-02-22T04:57:30;5.70;99.90
11609;DHT22;5860;52.018;8.536;2023-02-22T04:59:57;5.70;99.90
11609;DHT22;5860;52.018;8.536;2023-02-22T05:02:24;5.70;99.90
11609;DHT22;5860;52.018;8.536;2023-02-22T05:04:51;5.80;99.90
11609;DHT22;5860;52.018;8.536;2023-02-22T05:07:18;5.90;99.90
11609;DHT22;5860;52.018;8.536;2023-02-22T05:09:46;5.80;99.90
11609;DHT22;5860;52.018;8.536;2023-02-22T05:12:16;5.90;99.90
11609;DHT22;5860;52.018;8.536;2023-02-22T05:14:42;5.90;99.90
11609;DHT22;5860;52.018;8.536;2023-02-22T05:17:10;5.90;99.90
11609;DHT22;5860;52.018;8.536;2023-02-22T05:19:37;5.90;99.90
11609;DHT22;5860;52.018;8.536;2023-02-22T05:22:04;5.80;99.90
11609;DHT22;5860;52.018;8.536;2023-02-22T05:24:31;5.70;99.90
11609;DHT22;5860;52.018;8.536;2023-02-22T05:26:58;5.70;99.90
11609;DHT22;5860;52.018;8.536;2023-02-22T05:29:25;5.60;99.90
11609;DHT22;5860;52.018;8.536;2023-02-22T05:31:52;5.60;99.90
11609;DHT22;5860;52.018;8.536;2023-02-22T05:34:19;5.60;99.90
11609;DHT22;5860;52.018;8.536;2023-02-22T05:36:46;5.50;99.90
11609;DHT22;5860;52.018;8.536;2023-02-22T05:39:13;5.50;99.90
11609;DHT22;5860;52.018;8.536;2023-02-22T05:41:40;5.40;99.90
11609;DHT22;5860;52.018;8.536;2023-02-22T05:44:07;5.40;99.90
11609;DHT22;5860;52.018;8.536;2023-02-22T05:46:34;5.40;99.90
11609;DHT22;5860;52.018;8.536;2023-02-22T05:49:01;5.40;99.90
11609;DHT22;5860;52.018;8.536;2023-02-22T05:51:28;5.30;99.90
11609;DHT22;5860;52.018;8.536;2023-02-22T05:53:55;5.30;99.90
11609;DHT22;5860;52.018;8.536;2023-02-22T05:56:24;5.40;99.90
11609;DHT22;5860;52.018;8.536;2023-02-22T05:58:51;5.30;99.90
11609;DHT22;5860;52.018;8.536;2023-02-22T06:01:18;5.30;99.90
11609;DHT22;5860;52.018;8.536;2023-02-22T06:03:47;5.30;99.90
11609;DHT22;5860;52.018;8.536;2023-02-22T06:06:15;5.30;99.90
11609;DHT22;5860;52.018;8.536;2023-02-22T06:08:42;5.30;99.90
11609;DHT22;5860;52.018;8.536;2023-02-22T06:11:10;5.30;99.90
11609;DHT22;5860;52.018;8.536;2023-02-22T06:13:38;5.30;99.90
11609;DHT22;5860;52.018;8.536;2023-02-22T06:16:06;5.30;99.90
11609;DHT22;5860;52.018;8.536;2023-02-22T06:18:33;5.30;99.90
11609;DHT22;5860;52.018;8.536;2023-02-22T06:21:00;5.30;99.90
11609;DHT22;5860;52.018;8.536;2023-02-22T06:23:27;5.30;99.90
11609;DHT22;5860;52.018;8.536;2023-02-22T06:25:54;5.30;99.90
11609;DHT22;5860;52.018;8.536;2023-02-22T06:28:21;5.30;99.90
11609;DHT22;5860;52.018;8.536;2023-02-22T06:30:49;5.40;99.90
11609;DHT22;5860;52.018;8.536;2023-02-22T06:33:16;5.40;99.90
11609;DHT22;5860;52.018;8.536;2023-02-22T06:35:43;5.40;99.90
11609;DHT22;5860;52.018;8.536;2023-02-22T06:38:11;5.50;99.90
11609;DHT22;5860;52.018;8.536;2023-02-22T06:40:38;5.50;99.90
11609;DHT22;5860;52.018;8.536;2023-02-22T06:43:04;5.60;99.90
11609;DHT22;5860;52.018;8.536;2023-02-22T06:45:31;5.70;99.90
11609;DHT22;5860;52.018;8.536;2023-02-22T06:47:58;5.70;99.90
11609;DHT22;5860;52.018;8.536;2023-02-22T06:50:27;5.80;99.90
11609;DHT22;5860;52.018;8.536;2023-02-22T06:52:56;5.90;99.90
11609;DHT22;5860;52.018;8.536;2023-02-22T06:55:26;6.00;99.90
11609;DHT22;5860;52.018;8.536;2023-02-22T06:57:54;6.10;99.90
11609;DHT22;5860;52.018;8.536;2023-02-22T07:00:23;6.20;99.90
11609;DHT22;5860;52.018;8.536;2023-02-22T07:02:51;6.40;99.90
11609;DHT22;5860;52.018;8.536;2023-02-22T07:05:20;6.40;99.90
11609;DHT22;5860;52.018;8.536;2023-02-22T07:07:50;6.50;99.90
11609;DHT22;5860;52.018;8.536;2023-02-22T07:10:24;6.60;99.90
11609;DHT22;5860;52.018;8.536;2023-02-22T07:12:53;6.60;99.90
11609;DHT22;5860;52.018;8.536;2023-02-22T07:15:27;6.70;99.90
11609;DHT22;5860;52.018;8.536;2023-02-22T07:17:55;6.80;99.90
11609;DHT22;5860;52.018;8.536;2023-02-22T07:20:23;6.80;99.90
11609;DHT22;5860;52.018;8.536;2023-02-22T07:22:50;6.80;99.90
11609;DHT22;5860;52.018;8.536;2023-02-22T07:25:18;6.70;99.90
11609;DHT22;5860;52.018;8.536;2023-02-22T07:27:46;6.70;99.90
11609;DHT22;5860;52.018;8.536;2023-02-22T07:30:22;6.90;99.90
11609;DHT22;5860;52.018;8.536;2023-02-22T07:32:53;6.90;99.90
11609;DHT22;5860;52.018;8.536;2023-02-22T07:35:24;7.00;99.90
11609;DHT22;5860;52.018;8.536;2023-02-22T07:37:51;7.20;99.90
11609;DHT22;5860;52.018;8.536;2023-02-22T07:40:22;7.30;99.90
11609;DHT22;5860;52.018;8.536;2023-02-22T07:42:55;7.40;99.90
11609;DHT22;5860;52.018;8.536;2023-02-22T07:45:35;7.40;99.90
11609;DHT22;5860;52.018;8.536;2023-02-22T07:48:04;7.50;99.90
11609;DHT22;5860;52.018;8.536;2023-02-22T07:50:33;7.50;99.90
11609;DHT22;5860;52.018;8.536;2023-02-22T07:53:03;7.50;99.90
11609;DHT22;5860;52.018;8.536;2023-02-22T07:55:31;7.60;99.90
11609;DHT22;5860;52.018;8.536;2023-02-22T07:58:00;7.70;99.90
11609;DHT22;5860;52.018;8.536;2023-02-22T08:00:34;7.70;99.90
11609;DHT22;5860;52.018;8.536;2023-02-22T08:03:03;7.60;99.90
11609;DHT22;5860;52.018;8.536;2023-02-22T08:05:31;7.70;99.90
11609;DHT22;5860;52.018;8.536;2023-02-22T08:08:00;7.70;99.90
11609;DHT22;5860;52.018;8.536;2023-02-22T08:10:28;7.80;99.90
11609;DHT22;5860;52.018;8.536;2023-02-22T08:12:57;8.00;99.90
11609;DHT22;5860;52.018;8.536;2023-02-22T08:15:27;8.30;99.90
11609;DHT22;5860;52.018;8.536;2023-02-22T08:17:59;8.30;99.90
11609;DHT22;5860;52.018;8.536;2023-02-22T08:20:27;8.30;99.90
11609;DHT22;5860;52.018;8.536;2023-02-22T08:22:56;8.30;99.90
11609;DHT22;5860;52.018;8.536;2023-02-22T08:25:25;8.40;99.90
11609;DHT22;5860;52.018;8.536;2023-02-22T08:28:04;8.60;99.90
11609;DHT22;5860;52.018;8.536;2023-02-22T08:30:33;8.40;99.90
11609;DHT22;5860;52.018;8.536;2023-02-22T08:33:05;8.50;99.90
11609;DHT22;5860;52.018;8.536;2023-02-22T08:35:33;8.70;99.90
11609;DHT22;5860;52.018;8.536;2023-02-22T08:38:04;8.90;99.90
11609;DHT22;5860;52.018;8.536;2023-02-22T08:40:34;9.00;99.90
11609;DHT22;5860;52.018;8.536;2023-02-22T08:43:02;9.10;99.90
11609;DHT22;5860;52.018;8.536;2023-02-22T08:45:29;9.10;99.90
11609;DHT22;5860;52.018;8.536;2023-02-22T08:47:57;9.30;99.90
11609;DHT22;5860;52.018;8.536;2023-02-22T08:50:28;9.40;99.90
11609;DHT22;5860;52.018;8.536;2023-02-22T08:52:57;9.50;99.90
11609;DHT22;5860;52.018;8.536;2023-02-22T08:55:31;9.70;99.90
11609;DHT22;5860;52.018;8.536;2023-02-22T08:58:00;9.40;99.90
11609;DHT22;5860;52.018;8.536;2023-02-22T09:00:31;9.60;99.90
11609;DHT22;5860;52.018;8.536;2023-02-22T09:03:02;9.60;99.90
11609;DHT22;5860;52.018;8.536;2023-02-22T09:05:32;9.70;99.90
11609;DHT22;5860;52.018;8.536;2023-02-22T09:08:00;10.00;99.90
11609;DHT22;5860;52.018;8.536;2023-02-22T09:10:30;10.10;99.90
11609;DHT22;5860;52.018;8.536;2023-02-22T09:12:58;10.30;99.90
11609;DHT22;5860;52.018;8.536;2023-02-22T09:15:27;10.50;99.90
11609;DHT22;5860;52.018;8.536;2023-02-22T09:17:55;10.40;99.90
11609;DHT22;5860;52.018;8.536;2023-02-22T09:20:23;10.60;99.90
11609;DHT22;5860;52.018;8.536;2023-02-22T09:22:51;10.70;99.90
11609;DHT22;5860;52.018;8.536;2023-02-22T09:25:18;11.10;99.90
11609;DHT22;5860;52.018;8.536;2023-02-22T09:27:52;11.20;99.90
11609;DHT22;5860;52.018;8.536;2023-02-22T09:30:31;11.60;99.90
11609;DHT22;5860;52.018;8.536;2023-02-22T09:33:07;11.70;99.90
11609;DHT22;5860;52.018;8.536;2023-02-22T09:35:39;11.90;99.90
11609;DHT22;5860;52.018;8.536;2023-02-22T09:38:18;11.80;99.90
11609;DHT22;5860;52.018;8.536;2023-02-22T09:40:48;11.80;99.90
11609;DHT22;5860;52.018;8.536;2023-02-22T09:46:20;11.90;99.90
11609;DHT22;5860;52.018;8.536;2023-02-22T09:49:02;12.10;99.90
11609;DHT22;5860;52.018;8.536;2023-02-22T09:51:47;12.40;99.90
11609;DHT22;5860;52.018;8.536;2023-02-22T09:54:23;12.40;99.90
11609;DHT22;5860;52.018;8.536;2023-02-22T09:56:54;12.30;99.90
11609;DHT22;5860;52.018;8.536;2023-02-22T09:59:26;12.30;99.90
11609;DHT22;5860;52.018;8.536;2023-02-22T10:02:14;12.50;99.90
11609;DHT22;5860;52.018;8.536;2023-02-22T10:05:11;12.50;99.90
11609;DHT22;5860;52.018;8.536;2023-02-22T10:08:01;12.70;99.90
11609;DHT22;5860;52.018;8.536;2023-02-22T10:10:35;12.80;99.90
11609;DHT22;5860;52.018;8.536;2023-02-22T10:16:09;12.50;99.90
11609;DHT22;5860;52.018;8.536;2023-02-22T10:19:16;12.40;99.90
11609;DHT22;5860;52.018;8.536;2023-02-22T10:26:52;12.50;99.90
11609;DHT22;5860;52.018;8.536;2023-02-22T10:29:44;12.50;99.90
11609;DHT22;5860;52.018;8.536;2023-02-22T10:32:23;12.60;99.90
11609;DHT22;5860;52.018;8.536;2023-02-22T10:34:53;12.70;99.90
11609;DHT22;5860;52.018;8.536;2023-02-22T10:37:32;13.00;99.90
11609;DHT22;5860;52.018;8.536;2023-02-22T10:40:15;12.90;99.90
11609;DHT22;5860;52.018;8.536;2023-02-22T10:42:49;12.90;99.90
11609;DHT22;5860;52.018;8.536;2023-02-22T10:45:28;12.90;99.90
11609;DHT22;5860;52.018;8.536;2023-02-22T10:48:08;13.00;99.90
11609;DHT22;5860;52.018;8.536;2023-02-22T10:50:42;13.00;99.90
11609;DHT22;5860;52.018;8.536;2023-02-22T10:53:11;13.10;99.90
11609;DHT22;5860;52.018;8.536;2023-02-22T10:56:31;13.00;99.90
11609;DHT22;5860;52.018;8.536;2023-02-22T10:58:57;13.10;99.90
11609;DHT22;5860;52.018;8.536;2023-02-22T11:04:12;13.50;99.90
11609;DHT22;5860;52.018;8.536;2023-02-22T11:06:43;13.60;99.90
11609;DHT22;5860;52.018;8.536;2023-02-22T11:09:19;13.60;99.90
11609;DHT22;5860;52.018;8.536;2023-02-22T11:12:07;13.90;99.90
11609;DHT22;5860;52.018;8.536;2023-02-22T11:14:34;13.80;99.90
11609;DHT22;5860;52.018;8.536;2023-02-22T11:17:06;14.00;99.90
11609;DHT22;5860;52.018;8.536;2023-02-22T11:19:34;14.00;99.90
11609;DHT22;5860;52.018;8.536;2023-02-22T11:24:31;13.90;99.90
11609;DHT22;5860;52.018;8.536;2023-02-22T11:32:45;14.00;99.90
11609;DHT22;5860;52.018;8.536;2023-02-22T11:35:38;14.10;99.90
11609;DHT22;5860;52.018;8.536;2023-02-22T11:40:36;14.30;99.90
11609;DHT22;5860;52.018;8.536;2023-02-22T11:43:13;14.20;99.90
11609;DHT22;5860;52.018;8.536;2023-02-22T11:46:05;14.20;99.90
11609;DHT22;5860;52.018;8.536;2023-02-22T11:48:36;14.50;99.90
11609;DHT22;5860;52.018;8.536;2023-02-22T12:03:32;14.60;99.90
11609;DHT22;5860;52.018;8.536;2023-02-22T12:06:26;14.60;99.90
11609;DHT22;5860;52.018;8.536;2023-02-22T12:12:20;14.50;99.90
11609;DHT22;5860;52.018;8.536;2023-02-22T12:17:36;14.60;99.90
11609;DHT22;5860;52.018;8.536;2023-02-22T12:21:02;14.60;99.90
11609;DHT22;5860;52.018;8.536;2023-02-22T12:25:45;14.60;99.90
11609;DHT22;5860;52.018;8.536;2023-02-22T12:31:22;14.60;99.90
11609;DHT22;5860;52.018;8.536;2023-02-22T12:34:24;14.40;99.90
11609;DHT22;5860;52.018;8.536;2023-02-22T12:39:54;14.50;99.90
11609;DHT22;5860;52.018;8.536;2023-02-22T12:46:04;14.70;99.90
11609;DHT22;5860;52.018;8.536;2023-02-22T12:54:28;14.80;99.90
11609;DHT22;5860;52.018;8.536;2023-02-22T13:00:05;14.90;99.90
11609;DHT22;5860;52.018;8.536;2023-02-22T13:02:42;14.90;99.90
11609;DHT22;5860;52.018;8.536;2023-02-22T13:05:15;14.80;99.90
11609;DHT22;5860;52.018;8.536;2023-02-22T13:11:05;14.60;99.90
11609;DHT22;5860;52.018;8.536;2023-02-22T13:19:48;14.70;99.90
11609;DHT22;5860;52.018;8.536;2023-02-22T13:27:42;14.60;99.90
11609;DHT22;5860;52.018;8.536;2023-02-22T13:30:34;14.60;99.90
11609;DHT22;5860;52.018;8.536;2023-02-22T13:41:17;14.70;99.90
11609;DHT22;5860;52.018;8.536;2023-02-22T13:44:01;14.60;99.90
11609;DHT22;5860;52.018;8.536;2023-02-22T13:52:46;14.70;99.90
11609;DHT22;5860;52.018;8.536;2023-02-22T13:55:20;14.60;99.90
11609;DHT22;5860;52.018;8.536;2023-02-22T13:58:05;14.60;99.90
11609;DHT22;5860;52.018;8.536;2023-02-22T14:00:47;14.60;99.90
11609;DHT22;5860;52.018;8.536;2023-02-22T14:03:38;14.70;99.90
11609;DHT22;5860;52.018;8.536;2023-02-22T14:06:40;14.70;99.90
11609;DHT22;5860;52.018;8.536;2023-02-22T14:09:40;14.70;99.90
11609;DHT22;5860;52.018;8.536;2023-02-22T14:12:01;14.60;99.90
11609;DHT22;5860;52.018;8.536;2023-02-22T14:14:30;14.50;99.90
11609;DHT22;5860;52.018;8.536;2023-02-22T14:17:22;14.50;99.90
11609;DHT22;5860;52.018;8.536;2023-02-22T14:20:04;14.50;99.90
11609;DHT22;5860;52.018;8.536;2023-02-22T14:22:44;14.30;99.90
11609;DHT22;5860;52.018;8.536;2023-02-22T14:28:07;14.30;99.90
11609;DHT22;5860;52.018;8.536;2023-02-22T14:30:37;14.40;99.90
11609;DHT22;5860;52.018;8.536;2023-02-22T14:36:12;14.40;99.90
11609;DHT22;5860;52.018;8.536;2023-02-22T14:38:42;14.30;99.90
11609;DHT22;5860;52.018;8.536;2023-02-22T14:41:13;14.30;99.90
11609;DHT22;5860;52.018;8.536;2023-02-22T14:43:42;14.20;99.90
11609;DHT22;5860;52.018;8.536;2023-02-22T14:46:14;14.30;99.90
11609;DHT22;5860;52.018;8.536;2023-02-22T14:48:45;14.20;99.90
11609;DHT22;5860;52.018;8.536;2023-02-22T14:51:24;14.20;99.90
11609;DHT22;5860;52.018;8.536;2023-02-22T14:54:07;14.30;99.90
11609;DHT22;5860;52.018;8.536;2023-02-22T14:57:11;14.20;99.90
11609;DHT22;5860;52.018;8.536;2023-02-22T15:02:18;14.10;99.90
11609;DHT22;5860;52.018;8.536;2023-02-22T15:04:54;14.10;99.90
11609;DHT22;5860;52.018;8.536;2023-02-22T15:07:26;14.00;99.90
11609;DHT22;5860;52.018;8.536;2023-02-22T15:10:18;14.00;99.90
11609;DHT22;5860;52.018;8.536;2023-02-22T15:12:56;14.00;99.90
11609;DHT22;5860;52.018;8.536;2023-02-22T15:15:52;13.90;99.90
11609;DHT22;5860;52.018;8.536;2023-02-22T15:18:42;13.90;99.90
11609;DHT22;5860;52.018;8.536;2023-02-22T15:21:15;13.90;99.90
11609;DHT22;5860;52.018;8.536;2023-02-22T15:24:10;13.80;99.90
11609;DHT22;5860;52.018;8.536;2023-02-22T15:26:40;13.80;99.90
11609;DHT22;5860;52.018;8.536;2023-02-22T15:29:35;13.80;99.90
11609;DHT22;5860;52.018;8.536;2023-02-22T15:35:29;13.80;99.90
11609;DHT22;5860;52.018;8.536;2023-02-22T15:38:20;13.70;99.90
11609;DHT22;5860;52.018;8.536;2023-02-22T15:40:58;13.70;99.90
11609;DHT22;5860;52.018;8.536;2023-02-22T15:43:26;13.60;99.90
11609;DHT22;5860;52.018;8.536;2023-02-22T15:45:59;13.50;99.90
11609;DHT22;5860;52.018;8.536;2023-02-22T15:48:27;13.50;99.90
11609;DHT22;5860;52.018;8.536;2023-02-22T15:51:07;13.40;99.90
11609;DHT22;5860;52.018;8.536;2023-02-22T15:53:44;13.40;99.90
11609;DHT22;5860;52.018;8.536;2023-02-22T15:56:18;13.30;99.90
11609;DHT22;5860;52.018;8.536;2023-02-22T15:58:51;13.20;99.90
11609;DHT22;5860;52.018;8.536;2023-02-22T16:01:27;13.20;99.90
11609;DHT22;5860;52.018;8.536;2023-02-22T16:04:00;13.20;99.90
11609;DHT22;5860;52.018;8.536;2023-02-22T16:06:39;13.20;99.90
11609;DHT22;5860;52.018;8.536;2023-02-22T16:09:10;13.00;99.90
11609;DHT22;5860;52.018;8.536;2023-02-22T16:11:45;12.90;99.90
11609;DHT22;5860;52.018;8.536;2023-02-22T16:22:39;12.60;99.90
11609;DHT22;5860;52.018;8.536;2023-02-22T16:25:29;12.60;99.90
11609;DHT22;5860;52.018;8.536;2023-02-22T16:27:59;12.50;99.90
11609;DHT22;5860;52.018;8.536;2023-02-22T16:30:33;12.40;99.90
11609;DHT22;5860;52.018;8.536;2023-02-22T16:33:04;12.20;99.90
11609;DHT22;5860;52.018;8.536;2023-02-22T16:35:32;12.10;99.90
11609;DHT22;5860;52.018;8.536;2023-02-22T16:38:04;12.00;99.90
11609;DHT22;5860;52.018;8.536;2023-02-22T16:40:34;11.80;99.90
11609;DHT22;5860;52.018;8.536;2023-02-22T16:43:05;11.70;99.90
11609;DHT22;5860;52.018;8.536;2023-02-22T16:45:35;11.60;99.90
11609;DHT22;5860;52.018;8.536;2023-02-22T16:48:12;11.50;99.90
11609;DHT22;5860;52.018;8.536;2023-02-22T16:50:40;11.40;99.90
11609;DHT22;5860;52.018;8.536;2023-02-22T16:53:08;11.40;99.90
11609;DHT22;5860;52.018;8.536;2023-02-22T16:55:35;11.20;99.90
11609;DHT22;5860;52.018;8.536;2023-02-22T16:58:03;11.30;99.90
11609;DHT22;5860;52.018;8.536;2023-02-22T17:00:31;11.20;99.90
11609;DHT22;5860;52.018;8.536;2023-02-22T17:03:01;11.10;99.90
11609;DHT22;5860;52.018;8.536;2023-02-22T17:05:33;11.10;99.90
11609;DHT22;5860;52.018;8.536;2023-02-22T17:08:04;11.00;99.90
11609;DHT22;5860;52.018;8.536;2023-02-22T17:10:33;10.90;99.90
11609;DHT22;5860;52.018;8.536;2023-02-22T17:13:02;10.80;99.90
11609;DHT22;5860;52.018;8.536;2023-02-22T17:15:45;10.70;99.90
11609;DHT22;5860;52.018;8.536;2023-02-22T17:18:15;10.70;99.90
11609;DHT22;5860;52.018;8.536;2023-02-22T17:20:43;10.70;99.90
11609;DHT22;5860;52.018;8.536;2023-02-22T17:23:14;10.70;99.90
11609;DHT22;5860;52.018;8.536;2023-02-22T17:25:44;10.60;99.90
11609;DHT22;5860;52.018;8.536;2023-02-22T17:28:14;10.60;99.90
11609;DHT22;5860;52.018;8.536;2023-02-22T17:30:42;10.60;99.90
11609;DHT22;5860;52.018;8.536;2023-02-22T17:33:14;10.50;99.90
11609;DHT22;5860;52.018;8.536;2023-02-22T17:35:43;10.60;99.90
11609;DHT22;5860;52.018;8.536;2023-02-22T17:38:14;10.60;99.90
11609;DHT22;5860;52.018;8.536;2023-02-22T17:40:46;10.50;99.90
11609;DHT22;5860;52.018;8.536;2023-02-22T17:43:19;10.50;99.90
11609;DHT22;5860;52.018;8.536;2023-02-22T17:45:49;10.50;99.90
11609;DHT22;5860;52.018;8.536;2023-02-22T17:48:17;10.50;99.90
11609;DHT22;5860;52.018;8.536;2023-02-22T17:50:46;10.40;99.90
11609;DHT22;5860;52.018;8.536;2023-02-22T17:53:16;10.40;99.90
11609;DHT22;5860;52.018;8.536;2023-02-22T17:55:48;10.30;99.90
11609;DHT22;5860;52.018;8.536;2023-02-22T17:58:16;10.30;99.90
11609;DHT22;5860;52.018;8.536;2023-02-22T18:00:47;10.30;99.90
11609;DHT22;5860;52.018;8.536;2023-02-22T18:03:17;10.20;99.90
11609;DHT22;5860;52.018;8.536;2023-02-22T18:05:50;10.20;99.90
11609;DHT22;5860;52.018;8.536;2023-02-22T18:08:22;10.10;99.90
11609;DHT22;5860;52.018;8.536;2023-02-22T18:10:51;10.20;99.90
11609;DHT22;5860;52.018;8.536;2023-02-22T18:13:25;10.20;99.90
11609;DHT22;5860;52.018;8.536;2023-02-22T18:15:56;10.20;99.90
11609;DHT22;5860;52.018;8.536;2023-02-22T18:18:26;10.10;99.90
11609;DHT22;5860;52.018;8.536;2023-02-22T18:20:53;10.20;99.90
11609;DHT22;5860;52.018;8.536;2023-02-22T18:23:27;10.10;99.90
11609;DHT22;5860;52.018;8.536;2023-02-22T18:25:55;10.10;99.90
11609;DHT22;5860;52.018;8.536;2023-02-22T18:28:36;10.10;99.90
11609;DHT22;5860;52.018;8.536;2023-02-22T18:31:08;10.10;99.90
11609;DHT22;5860;52.018;8.536;2023-02-22T18:33:36;10.00;99.90
11609;DHT22;5860;52.018;8.536;2023-02-22T18:36:03;10.10;99.90
11609;DHT22;5860;52.018;8.536;2023-02-22T18:38:31;10.10;99.90
11609;DHT22;5860;52.018;8.536;2023-02-22T18:41:01;10.00;99.90
11609;DHT22;5860;52.018;8.536;2023-02-22T18:43:28;10.00;99.90
11609;DHT22;5860;52.018;8.536;2023-02-22T18:46:12;10.00;99.90
11609;DHT22;5860;52.018;8.536;2023-02-22T18:48:42;10.00;99.90
11609;DHT22;5860;52.018;8.536;2023-02-22T18:51:11;10.00;99.90
11609;DHT22;5860;52.018;8.536;2023-02-22T18:53:39;10.10;99.90
11609;DHT22;5860;52.018;8.536;2023-02-22T18:56:09;10.10;99.90
11609;DHT22;5860;52.018;8.536;2023-02-22T18:58:37;10.10;99.90
11609;DHT22;5860;52.018;8.536;2023-02-22T19:01:07;10.10;99.90